Time;durP1;ratioP1;P1;durP2;ratioP2;P2;SDS_P1;SDS_P2;PMS_P1;PMS_P2;Temp;Humidity;BMP_temperature;BMP_pressure;BME280_temperature;BME280_humidity;BME280_pressure;Samples;Min_cycle;Max_cycle;Signal;HPM_P1;HPM_P2
2020/12/30 00:00:06;;;;;;;7.65;5.53;;;;;;;;;;5073140;28;20190;-75
2020/12/30 00:02:33;;;;;;;7.35;5.38;;;;;;;;;;5070014;28;20236;-74
2020/12/30 00:05:00;;;;;;;6.25;5.05;;;;;;;;;;5071764;28;20731;-75
2020/12/30 00:07:27;;;;;;;7.82;5.45;;;;;;;;;;5072695;28;20258;-74
2020/12/30 00:09:54;;;;;;;8.43;4.55;;;;;;;;;;5072821;28;20243;-75
2020/12/30 00:12:22;;;;;;;6.40;4.90;;;;;;;;;;5073384;28;20279;-74
2020/12/30 00:14:48;;;;;;;6.40;4.85;;;;;;;;;;5075101;28;20312;-76
2020/12/30 00:17:15;;;;;;;7.53;6.45;;;;;;;;;;5074930;28;20248;-75
2020/12/30 00:19:43;;;;;;;7.85;5.13;;;;;;;;;;5074835;28;20202;-76
2020/12/30 00:22:10;;;;;;;6.82;5.65;;;;;;;;;;5073228;28;20281;-75
2020/12/30 00:24:36;;;;;;;6.53;5.68;;;;;;;;;;5069035;28;20309;-75
2020/12/30 00:27:05;;;;;;;9.00;5.78;;;;;;;;;;5071442;28;20244;-77
2020/12/30 00:29:31;;;;;;;9.02;5.30;;;;;;;;;;5071178;28;20221;-74
2020/12/30 00:31:58;;;;;;;9.15;4.93;;;;;;;;;;5072411;28;20766;-75
2020/12/30 00:34:25;;;;;;;9.25;5.60;;;;;;;;;;5071354;28;20220;-74
2020/12/30 00:36:53;;;;;;;6.50;4.78;;;;;;;;;;5074819;28;20553;-74
2020/12/30 00:39:20;;;;;;;5.63;4.78;;;;;;;;;;5074318;28;20191;-76
2020/12/30 00:41:52;;;;;;;8.32;5.72;;;;;;;;;;5074621;28;20288;-74
2020/12/30 00:44:19;;;;;;;7.90;5.70;;;;;;;;;;5072638;28;20217;-76
2020/12/30 00:46:50;;;;;;;7.00;5.63;;;;;;;;;;5068364;28;20189;-74
2020/12/30 00:49:17;;;;;;;9.32;6.35;;;;;;;;;;5070877;28;20216;-76
2020/12/30 00:51:48;;;;;;;7.95;5.95;;;;;;;;;;5071829;28;20202;-75
2020/12/30 00:54:16;;;;;;;8.05;5.70;;;;;;;;;;5072074;28;20224;-74
2020/12/30 00:56:43;;;;;;;9.90;6.13;;;;;;;;;;5071419;28;20228;-75
2020/12/30 00:59:10;;;;;;;9.95;6.70;;;;;;;;;;5073880;28;20194;-75
2020/12/30 01:01:37;;;;;;;10.27;6.30;;;;;;;;;;5074274;28;20194;-76
2020/12/30 01:04:04;;;;;;;6.65;5.38;;;;;;;;;;5074137;28;20272;-75
2020/12/30 01:06:31;;;;;;;7.30;5.65;;;;;;;;;;5072586;28;20273;-74
2020/12/30 01:08:57;;;;;;;10.30;6.10;;;;;;;;;;5066064;28;20235;-75
2020/12/30 01:11:26;;;;;;;6.82;5.30;;;;;;;;;;5068801;28;20225;-76
2020/12/30 01:13:53;;;;;;;10.25;6.55;;;;;;;;;;5060597;28;20297;-76
2020/12/30 01:16:20;;;;;;;9.65;6.68;;;;;;;;;;5050211;28;20201;-75
2020/12/30 01:18:46;;;;;;;7.18;5.40;;;;;;;;;;5051821;28;20252;-77
2020/12/30 01:21:13;;;;;;;9.10;5.88;;;;;;;;;;5066805;28;20193;-75
2020/12/30 01:23:40;;;;;;;7.53;6.65;;;;;;;;;;5069033;28;20297;-75
2020/12/30 01:26:07;;;;;;;8.27;5.93;;;;;;;;;;5071638;28;20246;-75
2020/12/30 01:28:34;;;;;;;6.97;6.13;;;;;;;;;;5070559;28;20609;-75
2020/12/30 01:31:01;;;;;;;7.82;5.60;;;;;;;;;;5071290;28;20281;-75
2020/12/30 01:33:28;;;;;;;9.88;5.60;;;;;;;;;;5072309;28;20859;-76
2020/12/30 01:35:55;;;;;;;8.90;6.50;;;;;;;;;;5073083;28;20220;-75
2020/12/30 01:38:22;;;;;;;9.65;6.38;;;;;;;;;;5073401;28;20626;-76
2020/12/30 01:40:49;;;;;;;7.45;5.95;;;;;;;;;;5071908;28;20194;-74
2020/12/30 01:43:15;;;;;;;6.82;5.53;;;;;;;;;;5068930;28;20396;-74
2020/12/30 01:45:43;;;;;;;9.43;6.25;;;;;;;;;;5066931;28;20186;-74
2020/12/30 01:48:15;;;;;;;8.35;6.13;;;;;;;;;;5071174;28;20593;-74
2020/12/30 01:50:42;;;;;;;7.50;5.90;;;;;;;;;;5071057;28;20201;-75
2020/12/30 01:53:09;;;;;;;8.82;6.03;;;;;;;;;;5071380;28;20238;-75
2020/12/30 01:55:39;;;;;;;8.73;5.65;;;;;;;;;;5070800;28;20625;-76
2020/12/30 01:58:06;;;;;;;7.60;5.50;;;;;;;;;;5073020;28;20190;-74
2020/12/30 02:00:33;;;;;;;6.72;5.90;;;;;;;;;;5072931;28;20194;-75
2020/12/30 02:03:03;;;;;;;9.00;6.90;;;;;;;;;;5072903;28;20567;-74
2020/12/30 02:05:31;;;;;;;9.05;6.20;;;;;;;;;;5066985;28;20885;-76
2020/12/30 02:07:58;;;;;;;10.52;6.63;;;;;;;;;;5065725;28;20182;-74
2020/12/30 02:10:27;;;;;;;8.23;6.30;;;;;;;;;;5070773;28;20202;-75
2020/12/30 02:12:54;;;;;;;8.07;5.68;;;;;;;;;;5070263;28;20256;-75
2020/12/30 02:15:24;;;;;;;9.70;6.13;;;;;;;;;;5070676;28;20196;-75
2020/12/30 02:17:51;;;;;;;7.55;6.35;;;;;;;;;;5072027;28;20204;-77
2020/12/30 02:20:18;;;;;;;6.03;5.43;;;;;;;;;;5072379;28;20293;-75
2020/12/30 02:22:48;;;;;;;7.35;6.15;;;;;;;;;;5072426;28;20201;-74
2020/12/30 02:25:16;;;;;;;7.70;5.97;;;;;;;;;;5072642;28;20204;-76
2020/12/30 02:27:43;;;;;;;8.80;6.22;;;;;;;;;;5067835;28;20278;-74
2020/12/30 02:30:09;;;;;;;9.02;6.22;;;;;;;;;;5067091;28;20406;-74
2020/12/30 02:32:36;;;;;;;8.27;6.05;;;;;;;;;;5070141;28;20195;-75
2020/12/30 02:35:03;;;;;;;7.18;6.45;;;;;;;;;;5070084;28;20198;-74
2020/12/30 02:37:30;;;;;;;8.23;6.20;;;;;;;;;;5070525;28;20195;-76
2020/12/30 02:39:56;;;;;;;7.18;6.03;;;;;;;;;;5071069;28;20212;-76
2020/12/30 02:42:24;;;;;;;10.85;6.90;;;;;;;;;;5072318;28;20196;-74
2020/12/30 02:44:56;;;;;;;7.68;6.50;;;;;;;;;;5072072;28;20225;-76
2020/12/30 02:47:23;;;;;;;9.07;7.30;;;;;;;;;;5071941;28;20208;-74
2020/12/30 02:49:50;;;;;;;8.50;7.60;;;;;;;;;;5067830;28;20317;-76
2020/12/30 02:52:17;;;;;;;8.35;7.13;;;;;;;;;;5067009;28;20193;-75
2020/12/30 02:54:44;;;;;;;10.60;6.43;;;;;;;;;;5069695;28;20216;-73
2020/12/30 02:57:10;;;;;;;7.20;6.00;;;;;;;;;;5069328;28;20226;-77
2020/12/30 02:59:38;;;;;;;9.27;5.60;;;;;;;;;;5069903;28;20226;-75
2020/12/30 03:02:05;;;;;;;7.57;6.10;;;;;;;;;;5070520;28;20203;-77
2020/12/30 03:04:31;;;;;;;6.40;5.70;;;;;;;;;;5071939;28;20214;-75
2020/12/30 03:06:58;;;;;;;7.30;5.75;;;;;;;;;;5071934;28;20209;-75
2020/12/30 03:09:25;;;;;;;6.65;5.57;;;;;;;;;;5071134;28;20321;-74
2020/12/30 03:11:52;;;;;;;7.32;5.93;;;;;;;;;;5064201;28;20670;-75
2020/12/30 03:14:19;;;;;;;7.10;6.40;;;;;;;;;;5066659;28;20679;-74
2020/12/30 03:16:47;;;;;;;6.43;5.38;;;;;;;;;;5068254;28;20201;-75
2020/12/30 03:19:14;;;;;;;7.18;5.68;;;;;;;;;;5069224;28;20201;-76
2020/12/30 03:21:41;;;;;;;10.10;6.50;;;;;;;;;;5069743;28;20296;-74
2020/12/30 03:24:08;;;;;;;7.25;5.60;;;;;;;;;;5070573;28;20224;-74
2020/12/30 03:26:35;;;;;;;6.63;5.85;;;;;;;;;;5071538;28;20284;-74
2020/12/30 03:29:02;;;;;;;7.05;5.90;;;;;;;;;;5071502;28;20221;-74
2020/12/30 03:31:29;;;;;;;7.43;6.03;;;;;;;;;;5071629;28;20227;-74
2020/12/30 03:33:57;;;;;;;6.85;5.50;;;;;;;;;;5066611;28;20213;-76
2020/12/30 03:36:24;;;;;;;8.10;6.22;;;;;;;;;;5066231;28;20883;-75
2020/12/30 03:38:50;;;;;;;7.38;5.55;;;;;;;;;;5069186;28;20196;-74
2020/12/30 03:41:17;;;;;;;6.75;6.10;;;;;;;;;;5068200;28;20559;-74
2020/12/30 03:43:44;;;;;;;8.10;5.25;;;;;;;;;;5069620;28;20305;-75
2020/12/30 03:46:11;;;;;;;7.47;5.15;;;;;;;;;;5070344;28;20280;-74
2020/12/30 03:48:37;;;;;;;6.10;5.28;;;;;;;;;;5070984;28;20222;-74
2020/12/30 03:51:05;;;;;;;7.97;5.68;;;;;;;;;;5071333;28;20815;-74
2020/12/30 03:53:32;;;;;;;7.65;5.22;;;;;;;;;;5071333;28;20743;-75
2020/12/30 03:55:59;;;;;;;6.47;5.63;;;;;;;;;;5066260;28;20230;-75
2020/12/30 03:58:26;;;;;;;7.60;5.30;;;;;;;;;;5066364;28;20283;-75
2020/12/30 04:00:53;;;;;;;6.05;5.35;;;;;;;;;;5069308;28;20194;-77
2020/12/30 04:03:20;;;;;;;5.65;4.65;;;;;;;;;;5068965;28;20549;-75
2020/12/30 04:05:47;;;;;;;5.63;5.10;;;;;;;;;;5069114;28;20202;-76
2020/12/30 04:08:15;;;;;;;8.32;5.22;;;;;;;;;;5070061;28;20292;-75
2020/12/30 04:10:42;;;;;;;5.15;4.55;;;;;;;;;;5070976;28;20198;-75
2020/12/30 04:13:09;;;;;;;5.35;4.78;;;;;;;;;;5070914;28;20221;-75
2020/12/30 04:15:36;;;;;;;7.20;5.20;;;;;;;;;;5071001;28;20201;-76
2020/12/30 04:18:02;;;;;;;5.07;4.22;;;;;;;;;;5066986;28;20197;-76
2020/12/30 04:20:29;;;;;;;6.65;4.80;;;;;;;;;;5066161;28;20764;-75
2020/12/30 04:22:56;;;;;;;7.60;5.70;;;;;;;;;;5068567;28;20201;-74
2020/12/30 04:25:24;;;;;;;6.25;5.18;;;;;;;;;;5068574;28;20739;-77
2020/12/30 04:27:50;;;;;;;4.90;4.35;;;;;;;;;;5069191;28;20202;-74
2020/12/30 04:30:17;;;;;;;5.82;4.75;;;;;;;;;;5069621;28;20222;-77
2020/12/30 04:32:44;;;;;;;5.32;4.70;;;;;;;;;;5073633;28;20552;-77
2020/12/30 04:35:11;;;;;;;6.32;4.60;;;;;;;;;;5074790;28;20198;-75
2020/12/30 04:37:37;;;;;;;10.02;4.80;;;;;;;;;;5074324;28;20224;-75
2020/12/30 04:40:04;;;;;;;5.80;4.63;;;;;;;;;;5071168;28;20197;-75
2020/12/30 04:42:33;;;;;;;8.75;5.30;;;;;;;;;;5069550;28;20198;-75
2020/12/30 04:45:02;;;;;;;7.05;5.05;;;;;;;;;;5071575;28;20243;-76
2020/12/30 04:47:29;;;;;;;7.63;5.35;;;;;;;;;;5071937;28;20198;-75
2020/12/30 04:49:56;;;;;;;5.18;4.50;;;;;;;;;;5072463;28;20279;-75
2020/12/30 04:52:26;;;;;;;5.57;4.93;;;;;;;;;;5072944;28;20198;-74
2020/12/30 04:54:53;;;;;;;4.85;4.03;;;;;;;;;;5074077;28;20537;-75
2020/12/30 04:57:24;;;;;;;7.43;4.70;;;;;;;;;;5073691;28;20229;-76
2020/12/30 04:59:53;;;;;;;6.35;4.88;;;;;;;;;;5074062;28;20198;-74
2020/12/30 05:02:24;;;;;;;7.30;5.10;;;;;;;;;;5070512;28;20195;-74
2020/12/30 05:04:51;;;;;;;6.38;4.50;;;;;;;;;;5068891;28;20217;-75
2020/12/30 05:07:17;;;;;;;8.85;4.70;;;;;;;;;;5071480;28;20201;-75
2020/12/30 05:09:45;;;;;;;6.28;4.40;;;;;;;;;;5072102;28;20226;-74
2020/12/30 05:12:12;;;;;;;7.30;5.55;;;;;;;;;;5053148;28;20893;-76
2020/12/30 05:14:40;;;;;;;5.80;4.82;;;;;;;;;;5051895;28;20227;-74
2020/12/30 05:17:07;;;;;;;5.68;4.65;;;;;;;;;;5057788;28;20211;-76
2020/12/30 05:19:34;;;;;;;6.20;5.10;;;;;;;;;;5067067;28;20207;-74
2020/12/30 05:22:01;;;;;;;5.88;4.82;;;;;;;;;;5071788;28;20217;-74
2020/12/30 05:24:28;;;;;;;7.95;5.55;;;;;;;;;;5071582;28;20569;-74
2020/12/30 05:26:55;;;;;;;6.85;5.25;;;;;;;;;;5071762;28;20208;-75
2020/12/30 05:29:23;;;;;;;6.85;5.50;;;;;;;;;;5072610;28;20350;-75
2020/12/30 05:31:51;;;;;;;8.65;5.65;;;;;;;;;;5073680;28;20199;-75
2020/12/30 05:34:19;;;;;;;6.05;5.35;;;;;;;;;;5073547;28;20218;-77
2020/12/30 05:36:46;;;;;;;6.03;4.82;;;;;;;;;;5072357;28;20190;-75
2020/12/30 05:39:28;;;;;;;7.57;5.70;;;;;;;;;;5068775;28;20191;-76
2020/12/30 05:42:08;;;;;;;9.07;5.50;;;;;;;;;;5066821;28;20205;-77
2020/12/30 05:44:35;;;;;;;7.82;5.45;;;;;;;;;;5070960;28;20309;-76
2020/12/30 05:47:09;;;;;;;6.50;5.35;;;;;;;;;;5071106;28;20292;-77
2020/12/30 05:49:37;;;;;;;5.85;4.88;;;;;;;;;;5071335;28;20221;-76
2020/12/30 05:52:11;;;;;;;6.50;5.30;;;;;;;;;;5072460;28;20202;-77
2020/12/30 05:54:38;;;;;;;6.97;5.25;;;;;;;;;;5072878;28;20312;-76
2020/12/30 05:57:19;;;;;;;6.43;5.50;;;;;;;;;;5072784;28;20246;-76
2020/12/30 05:59:46;;;;;;;7.00;5.82;;;;;;;;;;5071119;28;20525;-75
2020/12/30 06:02:13;;;;;;;9.68;5.95;;;;;;;;;;5067340;28;20239;-76
2020/12/30 06:04:41;;;;;;;8.52;5.82;;;;;;;;;;5069020;28;20613;-75
2020/12/30 06:07:12;;;;;;;6.38;5.78;;;;;;;;;;5070439;28;20673;-76
2020/12/30 06:09:39;;;;;;;8.95;6.30;;;;;;;;;;5070546;28;20222;-74
2020/12/30 06:12:07;;;;;;;8.13;5.45;;;;;;;;;;5070867;28;20290;-75
2020/12/30 06:14:34;;;;;;;8.27;5.82;;;;;;;;;;5072579;28;20225;-76
2020/12/30 06:17:02;;;;;;;9.18;6.88;;;;;;;;;;5072827;28;20200;-75
2020/12/30 06:19:29;;;;;;;9.93;6.95;;;;;;;;;;5070438;28;20251;-75
2020/12/30 06:21:58;;;;;;;8.80;6.65;;;;;;;;;;5066583;28;20708;-75
2020/12/30 06:24:26;;;;;;;10.68;6.30;;;;;;;;;;5068802;28;20206;-75
2020/12/30 06:26:53;;;;;;;9.65;6.88;;;;;;;;;;5050619;28;20253;-75
2020/12/30 06:29:19;;;;;;;10.23;6.47;;;;;;;;;;5049710;28;20237;-75
2020/12/30 06:31:47;;;;;;;10.93;7.63;;;;;;;;;;5050003;28;20271;-75
2020/12/30 06:34:15;;;;;;;10.73;7.07;;;;;;;;;;5051866;28;20223;-75
2020/12/30 06:36:42;;;;;;;10.18;7.05;;;;;;;;;;5052301;28;20294;-76
2020/12/30 06:39:18;;;;;;;10.40;7.20;;;;;;;;;;5051871;28;20206;-76
2020/12/30 06:41:59;;;;;;;14.68;7.63;;;;;;;;;;5054119;28;20195;-76
2020/12/30 06:44:41;;;;;;;11.45;7.80;;;;;;;;;;5065036;28;20225;-77
2020/12/30 06:47:08;;;;;;;12.02;8.18;;;;;;;;;;5067852;28;20297;-77
2020/12/30 06:49:35;;;;;;;9.93;7.07;;;;;;;;;;5070038;28;20708;-76
2020/12/30 06:52:02;;;;;;;12.40;7.30;;;;;;;;;;5071065;28;20289;-76
2020/12/30 06:54:43;;;;;;;8.65;7.50;;;;;;;;;;5059531;28;20347;-78
2020/12/30 06:57:11;;;;;;;10.32;7.15;;;;;;;;;;5073352;28;20248;-77
2020/12/30 06:59:38;;;;;;;12.20;6.47;;;;;;;;;;5072909;28;20201;-77
2020/12/30 07:02:07;;;;;;;9.50;6.60;;;;;;;;;;5072521;28;20266;-75
2020/12/30 07:04:35;;;;;;;15.55;7.90;;;;;;;;;;5070267;28;20206;-76
2020/12/30 07:07:03;;;;;;;11.23;7.22;;;;;;;;;;5066413;28;20201;-77
2020/12/30 07:09:30;;;;;;;9.10;7.10;;;;;;;;;;5068806;28;20221;-76
2020/12/30 07:11:57;;;;;;;12.07;7.28;;;;;;;;;;5059661;28;20632;-77
2020/12/30 07:14:26;;;;;;;10.93;8.05;;;;;;;;;;5048564;28;20428;-76
2020/12/30 07:16:54;;;;;;;10.77;7.60;;;;;;;;;;5048202;28;20774;-77
2020/12/30 07:19:22;;;;;;;9.75;7.22;;;;;;;;;;5050921;28;20317;-76
2020/12/30 07:21:50;;;;;;;11.73;7.75;;;;;;;;;;5051312;28;20286;-83
2020/12/30 07:24:21;;;;;;;14.80;8.38;;;;;;;;;;5051333;28;20226;-84
2020/12/30 07:26:48;;;;;;;10.27;8.30;;;;;;;;;;5055867;28;20194;-78
2020/12/30 07:29:15;;;;;;;13.93;9.10;;;;;;;;;;5065986;28;20229;-77
2020/12/30 07:31:43;;;;;;;12.98;8.63;;;;;;;;;;5068307;28;20220;-76
2020/12/30 07:34:17;;;;;;;14.98;10.00;;;;;;;;;;5051911;28;20582;-78
2020/12/30 07:36:45;;;;;;;12.63;8.55;;;;;;;;;;5048807;28;20200;-77
2020/12/30 07:39:12;;;;;;;13.52;8.43;;;;;;;;;;5049372;28;20272;-76
2020/12/30 07:41:40;;;;;;;14.20;9.25;;;;;;;;;;5061678;28;20201;-76
2020/12/30 07:44:07;;;;;;;12.75;7.90;;;;;;;;;;5065526;28;20210;-76
2020/12/30 07:46:34;;;;;;;13.23;7.57;;;;;;;;;;5055414;28;20289;-76
2020/12/30 07:49:16;;;;;;;13.35;9.10;;;;;;;;;;5048809;28;20221;-76
2020/12/30 07:51:47;;;;;;;13.35;8.55;;;;;;;;;;5048107;28;20213;-77
2020/12/30 07:54:14;;;;;;;10.82;8.75;;;;;;;;;;5050375;28;20227;-76
2020/12/30 07:56:41;;;;;;;13.65;9.30;;;;;;;;;;5050752;28;20234;-76
2020/12/30 07:59:08;;;;;;;12.77;8.75;;;;;;;;;;5050625;28;20239;-76
2020/12/30 08:01:35;;;;;;;13.90;8.57;;;;;;;;;;5049454;28;20194;-75
2020/12/30 08:04:09;;;;;;;11.55;8.02;;;;;;;;;;5060957;28;20320;-76
2020/12/30 08:06:51;;;;;;;12.77;8.65;;;;;;;;;;5065634;28;20200;-77
2020/12/30 08:09:18;;;;;;;14.23;8.25;;;;;;;;;;5071803;28;20247;-76
2020/12/30 08:11:49;;;;;;;12.73;8.32;;;;;;;;;;5062439;28;20262;-76
2020/12/30 08:14:16;;;;;;;9.27;7.43;;;;;;;;;;5053152;28;20218;-76
2020/12/30 08:16:58;;;;;;;13.95;7.70;;;;;;;;;;5054194;28;20671;-76
2020/12/30 08:19:28;;;;;;;10.07;7.45;;;;;;;;;;5054018;28;20199;-76
2020/12/30 08:22:00;;;;;;;11.55;8.63;;;;;;;;;;5054626;28;20286;-75
2020/12/30 08:24:29;;;;;;;11.95;8.15;;;;;;;;;;5054758;28;20301;-75
2020/12/30 08:26:56;;;;;;;9.98;7.80;;;;;;;;;;5065942;28;20186;-79
2020/12/30 08:29:22;;;;;;;10.88;7.80;;;;;;;;;;5069897;28;20214;-75
2020/12/30 08:31:52;;;;;;;10.57;7.43;;;;;;;;;;5053246;28;20260;-72
2020/12/30 08:34:23;;;;;;;10.18;7.35;;;;;;;;;;5051990;28;20757;-76
2020/12/30 08:36:52;;;;;;;12.40;8.15;;;;;;;;;;5051543;28;20238;-76
2020/12/30 08:39:21;;;;;;;10.35;8.10;;;;;;;;;;5054072;28;20233;-75
2020/12/30 08:41:52;;;;;;;10.30;7.35;;;;;;;;;;5053765;28;20274;-76
2020/12/30 08:44:21;;;;;;;11.68;8.55;;;;;;;;;;5054179;28;20214;-77
2020/12/30 08:46:49;;;;;;;8.23;7.03;;;;;;;;;;5054510;28;20218;-77
2020/12/30 08:49:19;;;;;;;9.35;7.15;;;;;;;;;;5067162;28;20210;-76
2020/12/30 08:51:45;;;;;;;10.45;7.63;;;;;;;;;;5068538;28;20807;-77
2020/12/30 08:54:16;;;;;;;9.32;7.43;;;;;;;;;;5072327;28;20214;-76
2020/12/30 08:56:43;;;;;;;12.00;7.47;;;;;;;;;;5070422;28;20994;-76
2020/12/30 08:59:21;;;;;;;11.95;7.00;;;;;;;;;;5072195;28;20555;-78
2020/12/30 09:01:47;;;;;;;10.30;6.95;;;;;;;;;;5073293;28;20208;-79
2020/12/30 09:04:14;;;;;;;8.00;6.05;;;;;;;;;;5073946;28;20350;-79
2020/12/30 09:06:42;;;;;;;11.60;7.25;;;;;;;;;;5073872;28;20557;-77
2020/12/30 09:09:09;;;;;;;8.68;6.70;;;;;;;;;;5074103;28;20586;-78
2020/12/30 09:11:36;;;;;;;9.25;7.30;;;;;;;;;;5067529;28;20236;-78
2020/12/30 09:14:14;;;;;;;8.77;6.55;;;;;;;;;;5066084;28;20272;-78
2020/12/30 09:16:55;;;;;;;8.13;6.28;;;;;;;;;;5070464;28;20788;-80
2020/12/30 09:19:22;;;;;;;8.15;6.00;;;;;;;;;;5069165;28;20194;-80
2020/12/30 09:21:49;;;;;;;7.55;6.38;;;;;;;;;;5070095;28;20191;-78
2020/12/30 09:24:16;;;;;;;7.88;6.25;;;;;;;;;;5051557;28;20301;-77
2020/12/30 09:26:43;;;;;;;8.15;5.93;;;;;;;;;;5051845;28;20545;-77
2020/12/30 09:29:19;;;;;;;7.15;5.88;;;;;;;;;;5051601;28;20218;-77
2020/12/30 09:31:53;;;;;;;8.70;6.55;;;;;;;;;;5053783;28;20246;-76
2020/12/30 09:34:20;;;;;;;8.60;6.47;;;;;;;;;;5067691;28;20205;-79
2020/12/30 09:36:54;;;;;;;7.47;5.70;;;;;;;;;;5070000;28;20190;-82
2020/12/30 09:39:21;;;;;;;7.72;5.47;;;;;;;;;;5071417;28;20239;-81
2020/12/30 09:41:48;;;;;;;8.82;6.38;;;;;;;;;;5071197;28;20194;-81
2020/12/30 09:44:15;;;;;;;8.48;6.00;;;;;;;;;;5070133;28;20309;-80
2020/12/30 09:46:51;;;;;;;8.73;6.43;;;;;;;;;;5073243;28;20197;-78
2020/12/30 09:49:18;;;;;;;8.10;6.68;;;;;;;;;;5071977;28;20278;-78
2020/12/30 09:51:44;;;;;;;10.63;6.63;;;;;;;;;;5072974;28;20284;-77
2020/12/30 09:54:11;;;;;;;11.20;7.05;;;;;;;;;;5071095;28;20582;-77
2020/12/30 09:56:38;;;;;;;8.57;6.97;;;;;;;;;;5067014;28;20867;-78
2020/12/30 09:59:05;;;;;;;9.98;7.35;;;;;;;;;;5070084;28;20216;-78
2020/12/30 10:01:32;;;;;;;10.32;7.05;;;;;;;;;;5068071;28;20301;-77
2020/12/30 10:03:59;;;;;;;11.73;7.88;;;;;;;;;;5051576;28;20225;-77
2020/12/30 10:06:26;;;;;;;11.10;7.68;;;;;;;;;;5050662;28;20191;-79
2020/12/30 10:08:53;;;;;;;13.60;8.10;;;;;;;;;;5067246;28;20563;-78
2020/12/30 10:11:20;;;;;;;10.88;7.43;;;;;;;;;;5068014;28;20549;-79
2020/12/30 10:13:47;;;;;;;10.90;6.97;;;;;;;;;;5069149;28;20239;-78
2020/12/30 10:16:14;;;;;;;9.65;6.95;;;;;;;;;;5067691;28;20395;-78
2020/12/30 10:18:41;;;;;;;8.32;7.03;;;;;;;;;;5050387;28;20201;-78
2020/12/30 10:21:08;;;;;;;11.15;8.20;;;;;;;;;;5051943;28;20198;-77
2020/12/30 10:23:35;;;;;;;11.25;8.13;;;;;;;;;;5052185;28;20215;-78
2020/12/30 10:26:02;;;;;;;14.70;8.20;;;;;;;;;;5052512;28;20201;-78
2020/12/30 10:28:29;;;;;;;10.85;7.55;;;;;;;;;;5051979;28;20191;-77
2020/12/30 10:30:55;;;;;;;10.50;6.45;;;;;;;;;;5062877;28;20230;-77
2020/12/30 10:33:22;;;;;;;8.70;6.65;;;;;;;;;;5067011;28;20262;-80
2020/12/30 10:35:49;;;;;;;10.25;7.25;;;;;;;;;;5069737;28;20201;-77
2020/12/30 10:38:17;;;;;;;10.07;6.68;;;;;;;;;;5048709;28;20199;-81
2020/12/30 10:40:43;;;;;;;11.45;7.70;;;;;;;;;;5050149;28;20195;-79
2020/12/30 10:43:10;;;;;;;11.32;7.30;;;;;;;;;;5051246;28;20256;-78
2020/12/30 10:45:37;;;;;;;10.23;5.95;;;;;;;;;;5051996;28;20249;-80
2020/12/30 10:48:04;;;;;;;10.27;7.15;;;;;;;;;;5050299;28;20245;-80
2020/12/30 10:50:32;;;;;;;7.55;5.80;;;;;;;;;;5059969;28;20251;-80
2020/12/30 10:52:59;;;;;;;7.80;5.40;;;;;;;;;;5063556;28;20215;-81
2020/12/30 10:55:26;;;;;;;10.63;6.30;;;;;;;;;;5066843;28;20194;-78
2020/12/30 10:57:53;;;;;;;7.72;6.32;;;;;;;;;;5046722;28;20244;-79
2020/12/30 11:00:20;;;;;;;7.20;6.05;;;;;;;;;;5046675;28;20199;-79
2020/12/30 11:02:46;;;;;;;10.27;6.18;;;;;;;;;;5048098;28;20199;-76
2020/12/30 11:05:13;;;;;;;9.13;6.82;;;;;;;;;;5048263;28;20209;-85
2020/12/30 11:07:40;;;;;;;9.90;5.90;;;;;;;;;;5048510;28;20622;-82
2020/12/30 11:10:07;;;;;;;9.85;6.90;;;;;;;;;;5047934;28;20230;-78
2020/12/30 11:12:36;;;;;;;8.15;6.55;;;;;;;;;;5054128;28;20218;-81
2020/12/30 11:15:03;;;;;;;8.48;7.43;;;;;;;;;;5062631;28;20570;-78
2020/12/30 11:17:30;;;;;;;11.13;6.47;;;;;;;;;;5065346;28;20293;-79
2020/12/30 11:19:57;;;;;;;7.28;5.95;;;;;;;;;;5064280;28;20290;-79
2020/12/30 11:22:25;;;;;;;11.13;6.65;;;;;;;;;;5066045;28;20865;-79
2020/12/30 11:24:52;;;;;;;9.10;7.45;;;;;;;;;;5064524;28;20650;-80
2020/12/30 11:27:19;;;;;;;10.80;7.65;;;;;;;;;;5063260;28;20286;-78
2020/12/30 11:29:47;;;;;;;9.10;7.07;;;;;;;;;;5061451;28;21066;-76
2020/12/30 11:32:13;;;;;;;13.68;9.18;;;;;;;;;;5051385;28;20548;-75
2020/12/30 11:34:40;;;;;;;10.88;7.68;;;;;;;;;;5045663;28;20225;-76
2020/12/30 11:37:07;;;;;;;11.48;7.97;;;;;;;;;;5045672;28;20314;-79
2020/12/30 11:39:34;;;;;;;9.70;7.75;;;;;;;;;;5046762;28;20201;-79
2020/12/30 11:42:00;;;;;;;12.27;8.77;;;;;;;;;;5047595;28;20668;-77
2020/12/30 11:44:27;;;;;;;12.30;7.85;;;;;;;;;;5047076;28;20224;-78
2020/12/30 11:46:55;;;;;;;9.85;7.18;;;;;;;;;;5047299;28;20253;-77
2020/12/30 11:49:22;;;;;;;9.55;7.78;;;;;;;;;;5054818;28;20220;-80
2020/12/30 11:51:49;;;;;;;8.85;7.38;;;;;;;;;;5062507;28;21239;-84
2020/12/30 11:54:15;;;;;;;9.77;7.25;;;;;;;;;;5065510;28;20292;-76
2020/12/30 11:56:42;;;;;;;10.23;6.67;;;;;;;;;;5065534;28;20215;-76
2020/12/30 11:59:09;;;;;;;9.85;6.60;;;;;;;;;;5066181;28;21248;-77
2020/12/30 12:01:36;;;;;;;9.50;6.90;;;;;;;;;;5065308;28;20618;-78
2020/12/30 12:04:04;;;;;;;11.50;8.50;;;;;;;;;;5067771;28;20214;-79
2020/12/30 12:06:30;;;;;;;10.55;8.07;;;;;;;;;;5067890;28;20203;-77
2020/12/30 12:08:59;;;;;;;10.95;7.78;;;;;;;;;;5067883;28;20645;-77
2020/12/30 12:11:26;;;;;;;13.02;7.40;;;;;;;;;;5065089;28;20196;-76
2020/12/30 12:13:52;;;;;;;9.57;6.57;;;;;;;;;;5061816;28;20235;-77
2020/12/30 12:16:19;;;;;;;10.50;7.30;;;;;;;;;;5065318;28;20451;-75
2020/12/30 12:18:46;;;;;;;10.90;7.20;;;;;;;;;;5056540;28;20191;-78
2020/12/30 12:21:14;;;;;;;10.35;7.05;;;;;;;;;;5048712;28;20355;-77
2020/12/30 12:23:40;;;;;;;12.32;7.50;;;;;;;;;;5046450;28;20249;-78
2020/12/30 12:26:07;;;;;;;9.83;7.10;;;;;;;;;;5050044;28;20262;-77
2020/12/30 12:28:38;;;;;;;8.43;6.70;;;;;;;;;;5048605;28;20448;-76
2020/12/30 12:31:05;;;;;;;7.82;6.47;;;;;;;;;;5049078;28;20263;-82
2020/12/30 12:33:32;;;;;;;11.50;7.80;;;;;;;;;;5054972;28;20657;-79
2020/12/30 12:35:59;;;;;;;9.40;6.80;;;;;;;;;;5064814;28;20187;-81
2020/12/30 12:38:27;;;;;;;13.03;7.03;;;;;;;;;;5058845;28;20260;-79
2020/12/30 12:40:54;;;;;;;8.25;5.95;;;;;;;;;;5048143;28;20508;-76
2020/12/30 12:43:20;;;;;;;8.90;6.07;;;;;;;;;;5047799;28;20219;-78
2020/12/30 12:45:47;;;;;;;10.30;6.97;;;;;;;;;;5048873;28;20455;-79
2020/12/30 12:48:14;;;;;;;9.10;6.40;;;;;;;;;;5050527;28;20211;-78
2020/12/30 12:50:41;;;;;;;10.20;7.25;;;;;;;;;;5050550;28;20496;-77
2020/12/30 12:53:08;;;;;;;10.02;6.90;;;;;;;;;;5052154;28;20292;-78
2020/12/30 12:55:36;;;;;;;7.07;6.28;;;;;;;;;;5057783;28;20198;-78
2020/12/30 12:58:03;;;;;;;7.53;6.30;;;;;;;;;;5067211;28;20593;-77
2020/12/30 13:00:30;;;;;;;9.48;6.30;;;;;;;;;;5070560;28;20717;-78
2020/12/30 13:02:57;;;;;;;10.37;7.63;;;;;;;;;;5071807;28;20892;-79
2020/12/30 13:05:24;;;;;;;9.55;6.80;;;;;;;;;;5071490;28;20437;-78
2020/12/30 13:07:51;;;;;;;7.72;6.38;;;;;;;;;;5071610;28;20557;-78
2020/12/30 13:10:17;;;;;;;10.15;7.32;;;;;;;;;;5072696;28;20711;-79
2020/12/30 13:12:45;;;;;;;9.45;7.10;;;;;;;;;;5073704;28;20195;-77
2020/12/30 13:15:12;;;;;;;10.75;6.97;;;;;;;;;;5073750;28;20291;-77
2020/12/30 13:17:40;;;;;;;14.07;8.10;;;;;;;;;;5072289;28;20192;-77
2020/12/30 13:20:07;;;;;;;10.85;7.60;;;;;;;;;;5067212;28;20667;-80
2020/12/30 13:22:34;;;;;;;10.55;7.88;;;;;;;;;;5069755;28;20198;-78
2020/12/30 13:25:00;;;;;;;13.02;8.02;;;;;;;;;;5055304;28;20722;-79
2020/12/30 13:27:27;;;;;;;13.60;8.48;;;;;;;;;;5051680;28;20199;-79
2020/12/30 13:29:55;;;;;;;13.00;9.10;;;;;;;;;;5051050;28;20288;-80
2020/12/30 13:32:22;;;;;;;10.15;7.40;;;;;;;;;;5053206;28;20202;-76
2020/12/30 13:34:49;;;;;;;10.27;7.75;;;;;;;;;;5053038;28;20218;-75
2020/12/30 13:37:15;;;;;;;12.70;7.32;;;;;;;;;;5052981;28;20205;-76
2020/12/30 13:39:42;;;;;;;10.48;8.25;;;;;;;;;;5053966;28;20252;-79
2020/12/30 13:42:13;;;;;;;8.15;6.53;;;;;;;;;;5067528;28;20214;-83
2020/12/30 13:44:40;;;;;;;13.65;8.48;;;;;;;;;;5068263;28;20246;-80
2020/12/30 13:47:08;;;;;;;10.63;7.03;;;;;;;;;;5050457;28;20273;-78
2020/12/30 13:49:35;;;;;;;8.50;6.75;;;;;;;;;;5049162;28;20225;-75
2020/12/30 13:52:01;;;;;;;12.43;7.95;;;;;;;;;;5050528;28;20670;-80
2020/12/30 13:54:28;;;;;;;8.30;6.50;;;;;;;;;;5052163;28;20244;-80
2020/12/30 13:56:55;;;;;;;10.02;7.30;;;;;;;;;;5052680;28;20607;-77
2020/12/30 13:59:23;;;;;;;11.55;6.45;;;;;;;;;;5072041;28;20190;-78
2020/12/30 14:01:54;;;;;;;8.30;6.28;;;;;;;;;;5071972;28;20617;-76
2020/12/30 14:04:22;;;;;;;11.07;8.57;;;;;;;;;;5065814;28;20259;-76
2020/12/30 14:06:48;;;;;;;9.63;6.75;;;;;;;;;;5068515;28;20276;-81
2020/12/30 14:09:15;;;;;;;12.00;8.30;;;;;;;;;;5059852;28;20240;-80
2020/12/30 14:11:42;;;;;;;11.52;8.35;;;;;;;;;;5050270;28;20348;-80
2020/12/30 14:14:09;;;;;;;11.50;8.30;;;;;;;;;;5050655;28;20574;-76
2020/12/30 14:16:36;;;;;;;10.70;8.63;;;;;;;;;;5071158;28;20665;-80
2020/12/30 14:19:03;;;;;;;14.48;10.15;;;;;;;;;;5072224;28;20700;-76
2020/12/30 14:21:30;;;;;;;14.07;9.70;;;;;;;;;;5072457;28;20281;-76
2020/12/30 14:23:57;;;;;;;13.20;9.75;;;;;;;;;;5071969;28;20216;-78
2020/12/30 14:26:24;;;;;;;17.60;10.13;;;;;;;;;;5066498;28;20266;-78
2020/12/30 14:28:51;;;;;;;13.90;10.07;;;;;;;;;;5067800;28;20653;-79
2020/12/30 14:31:18;;;;;;;18.88;12.25;;;;;;;;;;5069898;28;20579;-79
2020/12/30 14:33:46;;;;;;;15.68;10.05;;;;;;;;;;5061704;28;20203;-77
2020/12/30 14:36:13;;;;;;;18.38;10.93;;;;;;;;;;5050008;28;20195;-78
2020/12/30 14:38:41;;;;;;;22.63;12.88;;;;;;;;;;5051542;28;20207;-78
2020/12/30 14:41:08;;;;;;;16.23;11.90;;;;;;;;;;5051877;28;20702;-81